sensor_id;sensor_type;location;lat;lon;timestamp;P1;durP1;ratioP1;P2;durP2;ratioP2
21761;SDS011;11203;50.870;20.682;2023-02-28T00:01:29;31.10;;;19.15;;
21761;SDS011;11203;50.870;20.682;2023-02-28T00:03:56;32.80;;;18.83;;
21761;SDS011;11203;50.870;20.682;2023-02-28T00:06:22;29.40;;;17.30;;
21761;SDS011;11203;50.870;20.682;2023-02-28T00:08:49;31.23;;;19.17;;
21761;SDS011;11203;50.870;20.682;2023-02-28T00:11:15;37.05;;;22.52;;
21761;SDS011;11203;50.870;20.682;2023-02-28T00:13:43;85.53;;;38.20;;
21761;SDS011;11203;50.870;20.682;2023-02-28T00:16:14;90.50;;;41.08;;
21761;SDS011;11203;50.870;20.682;2023-02-28T00:18:46;60.42;;;28.73;;
21761;SDS011;11203;50.870;20.682;2023-02-28T00:21:12;37.53;;;19.33;;
21761;SDS011;11203;50.870;20.682;2023-02-28T00:23:39;33.63;;;17.95;;
21761;SDS011;11203;50.870;20.682;2023-02-28T00:26:05;30.15;;;16.75;;
21761;SDS011;11203;50.870;20.682;2023-02-28T00:28:32;36.97;;;20.42;;
21761;SDS011;11203;50.870;20.682;2023-02-28T00:30:58;44.88;;;22.70;;
21761;SDS011;11203;50.870;20.682;2023-02-28T00:33:25;58.03;;;28.77;;
21761;SDS011;11203;50.870;20.682;2023-02-28T00:36:00;42.35;;;22.80;;
21761;SDS011;11203;50.870;20.682;2023-02-28T00:38:33;34.88;;;18.02;;
21761;SDS011;11203;50.870;20.682;2023-02-28T00:40:59;44.53;;;23.67;;
21761;SDS011;11203;50.870;20.682;2023-02-28T00:43:30;45.20;;;24.23;;
21761;SDS011;11203;50.870;20.682;2023-02-28T00:46:01;35.15;;;19.83;;
21761;SDS011;11203;50.870;20.682;2023-02-28T00:48:28;32.67;;;18.95;;
21761;SDS011;11203;50.870;20.682;2023-02-28T00:50:54;88.40;;;42.53;;
21761;SDS011;11203;50.870;20.682;2023-02-28T00:53:21;42.13;;;20.23;;
21761;SDS011;11203;50.870;20.682;2023-02-28T00:55:48;47.83;;;25.60;;
21761;SDS011;11203;50.870;20.682;2023-02-28T00:58:15;31.45;;;19.17;;
21761;SDS011;11203;50.870;20.682;2023-02-28T01:00:41;32.20;;;17.80;;
21761;SDS011;11203;50.870;20.682;2023-02-28T01:03:07;31.70;;;18.88;;
21761;SDS011;11203;50.870;20.682;2023-02-28T01:05:33;35.25;;;19.35;;
21761;SDS011;11203;50.870;20.682;2023-02-28T01:07:59;36.90;;;21.83;;
21761;SDS011;11203;50.870;20.682;2023-02-28T01:10:25;34.45;;;20.27;;
21761;SDS011;11203;50.870;20.682;2023-02-28T01:12:56;36.65;;;19.85;;
21761;SDS011;11203;50.870;20.682;2023-02-28T01:15:22;34.47;;;18.92;;
21761;SDS011;11203;50.870;20.682;2023-02-28T01:17:49;29.15;;;16.10;;
21761;SDS011;11203;50.870;20.682;2023-02-28T01:20:15;29.27;;;16.95;;
21761;SDS011;11203;50.870;20.682;2023-02-28T01:22:41;32.63;;;17.67;;
21761;SDS011;11203;50.870;20.682;2023-02-28T01:25:07;31.63;;;17.33;;
21761;SDS011;11203;50.870;20.682;2023-02-28T01:27:33;28.98;;;16.40;;
21761;SDS011;11203;50.870;20.682;2023-02-28T01:30:01;33.58;;;16.05;;
21761;SDS011;11203;50.870;20.682;2023-02-28T01:32:28;25.60;;;15.25;;
21761;SDS011;11203;50.870;20.682;2023-02-28T01:34:54;28.52;;;17.00;;
21761;SDS011;11203;50.870;20.682;2023-02-28T01:37:20;33.38;;;21.02;;
21761;SDS011;11203;50.870;20.682;2023-02-28T01:39:46;23.55;;;13.38;;
21761;SDS011;11203;50.870;20.682;2023-02-28T01:42:12;26.90;;;14.60;;
21761;SDS011;11203;50.870;20.682;2023-02-28T01:47:42;47.20;;;23.58;;
21761;SDS011;11203;50.870;20.682;2023-02-28T01:50:13;39.28;;;22.58;;
21761;SDS011;11203;50.870;20.682;2023-02-28T01:52:45;33.15;;;18.20;;
21761;SDS011;11203;50.870;20.682;2023-02-28T01:55:13;48.25;;;25.05;;
21761;SDS011;11203;50.870;20.682;2023-02-28T01:57:43;28.83;;;17.45;;
21761;SDS011;11203;50.870;20.682;2023-02-28T02:00:17;41.13;;;22.33;;
21761;SDS011;11203;50.870;20.682;2023-02-28T02:02:48;31.10;;;19.20;;
21761;SDS011;11203;50.870;20.682;2023-02-28T02:05:23;39.15;;;22.15;;
21761;SDS011;11203;50.870;20.682;2023-02-28T02:08:04;36.38;;;22.13;;
21761;SDS011;11203;50.870;20.682;2023-02-28T02:10:50;64.22;;;32.78;;
21761;SDS011;11203;50.870;20.682;2023-02-28T02:16:37;38.65;;;24.40;;
21761;SDS011;11203;50.870;20.682;2023-02-28T02:37:25;105.93;;;43.83;;
21761;SDS011;11203;50.870;20.682;2023-02-28T02:40:13;63.22;;;28.65;;
21761;SDS011;11203;50.870;20.682;2023-02-28T02:46:06;67.93;;;33.72;;
21761;SDS011;11203;50.870;20.682;2023-02-28T02:49:09;100.82;;;49.58;;
21761;SDS011;11203;50.870;20.682;2023-02-28T02:51:43;51.00;;;29.98;;
21761;SDS011;11203;50.870;20.682;2023-02-28T02:54:17;90.40;;;48.58;;
21761;SDS011;11203;50.870;20.682;2023-02-28T02:56:47;41.15;;;26.48;;
21761;SDS011;11203;50.870;20.682;2023-02-28T02:59:16;41.63;;;28.95;;
21761;SDS011;11203;50.870;20.682;2023-02-28T03:01:48;38.00;;;26.05;;
21761;SDS011;11203;50.870;20.682;2023-02-28T03:04:22;36.95;;;24.15;;
21761;SDS011;11203;50.870;20.682;2023-02-28T03:06:51;41.60;;;25.95;;
21761;SDS011;11203;50.870;20.682;2023-02-28T03:09:24;46.17;;;27.65;;
21761;SDS011;11203;50.870;20.682;2023-02-28T03:11:52;40.08;;;25.85;;
21761;SDS011;11203;50.870;20.682;2023-02-28T03:17:58;39.80;;;22.75;;
21761;SDS011;11203;50.870;20.682;2023-02-28T03:20:53;36.47;;;22.92;;
21761;SDS011;11203;50.870;20.682;2023-02-28T03:26:31;60.28;;;43.45;;
21761;SDS011;11203;50.870;20.682;2023-02-28T03:29:06;51.90;;;35.08;;
21761;SDS011;11203;50.870;20.682;2023-02-28T03:32:08;42.58;;;27.17;;
21761;SDS011;11203;50.870;20.682;2023-02-28T03:35:09;76.22;;;48.03;;
21761;SDS011;11203;50.870;20.682;2023-02-28T03:38:10;37.70;;;22.55;;
21761;SDS011;11203;50.870;20.682;2023-02-28T03:40:47;33.95;;;19.55;;
21761;SDS011;11203;50.870;20.682;2023-02-28T03:43:20;35.15;;;22.25;;
21761;SDS011;11203;50.870;20.682;2023-02-28T03:45:54;48.13;;;28.48;;
21761;SDS011;11203;50.870;20.682;2023-02-28T03:48:26;57.63;;;32.75;;
21761;SDS011;11203;50.870;20.682;2023-02-28T03:51:00;41.30;;;24.90;;
21761;SDS011;11203;50.870;20.682;2023-02-28T03:53:30;37.95;;;22.02;;
21761;SDS011;11203;50.870;20.682;2023-02-28T03:56:11;40.35;;;23.73;;
21761;SDS011;11203;50.870;20.682;2023-02-28T03:58:47;117.50;;;52.17;;
21761;SDS011;11203;50.870;20.682;2023-02-28T04:01:35;44.08;;;24.73;;
21761;SDS011;11203;50.870;20.682;2023-02-28T04:04:07;37.03;;;24.27;;
21761;SDS011;11203;50.870;20.682;2023-02-28T04:06:35;44.28;;;26.73;;
21761;SDS011;11203;50.870;20.682;2023-02-28T04:09:03;36.90;;;24.13;;
21761;SDS011;11203;50.870;20.682;2023-02-28T04:11:40;36.95;;;22.13;;
21761;SDS011;11203;50.870;20.682;2023-02-28T04:14:17;34.85;;;20.63;;
21761;SDS011;11203;50.870;20.682;2023-02-28T04:16:44;34.17;;;21.17;;
21761;SDS011;11203;50.870;20.682;2023-02-28T04:19:11;35.13;;;20.17;;
21761;SDS011;11203;50.870;20.682;2023-02-28T04:21:40;36.00;;;22.00;;
21761;SDS011;11203;50.870;20.682;2023-02-28T04:24:14;37.53;;;22.23;;
21761;SDS011;11203;50.870;20.682;2023-02-28T04:26:46;38.03;;;19.80;;
21761;SDS011;11203;50.870;20.682;2023-02-28T04:29:19;33.35;;;20.50;;
21761;SDS011;11203;50.870;20.682;2023-02-28T04:31:59;42.13;;;23.48;;
21761;SDS011;11203;50.870;20.682;2023-02-28T04:34:28;50.95;;;31.02;;
21761;SDS011;11203;50.870;20.682;2023-02-28T04:36:56;53.13;;;30.77;;
21761;SDS011;11203;50.870;20.682;2023-02-28T04:39:23;48.95;;;27.02;;
21761;SDS011;11203;50.870;20.682;2023-02-28T04:41:50;39.17;;;23.23;;
21761;SDS011;11203;50.870;20.682;2023-02-28T04:44:16;38.50;;;23.17;;
21761;SDS011;11203;50.870;20.682;2023-02-28T04:46:43;33.42;;;21.75;;
21761;SDS011;11203;50.870;20.682;2023-02-28T04:49:10;37.53;;;21.58;;
21761;SDS011;11203;50.870;20.682;2023-02-28T04:51:37;36.63;;;22.17;;
21761;SDS011;11203;50.870;20.682;2023-02-28T04:54:03;34.55;;;21.92;;
21761;SDS011;11203;50.870;20.682;2023-02-28T04:56:29;37.05;;;22.83;;
21761;SDS011;11203;50.870;20.682;2023-02-28T04:58:55;44.45;;;25.90;;
21761;SDS011;11203;50.870;20.682;2023-02-28T05:03:56;39.10;;;23.80;;
21761;SDS011;11203;50.870;20.682;2023-02-28T05:06:27;38.22;;;24.23;;
21761;SDS011;11203;50.870;20.682;2023-02-28T05:08:57;43.88;;;26.30;;
21761;SDS011;11203;50.870;20.682;2023-02-28T05:11:32;41.38;;;26.23;;
21761;SDS011;11203;50.870;20.682;2023-02-28T05:14:00;54.72;;;30.60;;
21761;SDS011;11203;50.870;20.682;2023-02-28T05:16:29;52.70;;;29.05;;
21761;SDS011;11203;50.870;20.682;2023-02-28T05:18:56;51.13;;;28.08;;
21761;SDS011;11203;50.870;20.682;2023-02-28T05:21:23;58.63;;;33.17;;
21761;SDS011;11203;50.870;20.682;2023-02-28T05:23:59;60.60;;;33.40;;
21761;SDS011;11203;50.870;20.682;2023-02-28T05:26:27;62.25;;;35.78;;
21761;SDS011;11203;50.870;20.682;2023-02-28T05:28:55;64.93;;;36.33;;
21761;SDS011;11203;50.870;20.682;2023-02-28T05:31:22;67.85;;;37.50;;
21761;SDS011;11203;50.870;20.682;2023-02-28T05:33:49;79.07;;;41.50;;
21761;SDS011;11203;50.870;20.682;2023-02-28T05:36:18;91.82;;;45.35;;
21761;SDS011;11203;50.870;20.682;2023-02-28T05:38:47;80.15;;;43.75;;
21761;SDS011;11203;50.870;20.682;2023-02-28T05:41:14;82.10;;;43.75;;
21761;SDS011;11203;50.870;20.682;2023-02-28T05:43:41;80.80;;;45.03;;
21761;SDS011;11203;50.870;20.682;2023-02-28T05:46:08;74.60;;;41.58;;
21761;SDS011;11203;50.870;20.682;2023-02-28T05:48:38;80.60;;;44.20;;
21761;SDS011;11203;50.870;20.682;2023-02-28T05:51:06;75.57;;;39.45;;
21761;SDS011;11203;50.870;20.682;2023-02-28T05:53:34;103.20;;;45.92;;
21761;SDS011;11203;50.870;20.682;2023-02-28T05:56:00;106.13;;;48.50;;
21761;SDS011;11203;50.870;20.682;2023-02-28T05:58:27;83.20;;;41.15;;
21761;SDS011;11203;50.870;20.682;2023-02-28T06:00:59;76.60;;;39.60;;
21761;SDS011;11203;50.870;20.682;2023-02-28T06:03:27;68.30;;;37.13;;
21761;SDS011;11203;50.870;20.682;2023-02-28T06:05:53;67.32;;;35.72;;
21761;SDS011;11203;50.870;20.682;2023-02-28T06:08:19;63.22;;;37.17;;
21761;SDS011;11203;50.870;20.682;2023-02-28T06:10:46;65.28;;;36.08;;
21761;SDS011;11203;50.870;20.682;2023-02-28T06:13:12;70.50;;;37.40;;
21761;SDS011;11203;50.870;20.682;2023-02-28T06:15:38;68.65;;;38.33;;
21761;SDS011;11203;50.870;20.682;2023-02-28T06:18:04;70.00;;;36.40;;
21761;SDS011;11203;50.870;20.682;2023-02-28T06:20:30;72.65;;;39.90;;
21761;SDS011;11203;50.870;20.682;2023-02-28T06:22:57;98.32;;;47.47;;
21761;SDS011;11203;50.870;20.682;2023-02-28T06:25:27;115.85;;;53.53;;
21761;SDS011;11203;50.870;20.682;2023-02-28T06:27:54;92.70;;;50.42;;
21761;SDS011;11203;50.870;20.682;2023-02-28T06:30:20;90.82;;;48.95;;
21761;SDS011;11203;50.870;20.682;2023-02-28T06:32:52;98.55;;;54.47;;
21761;SDS011;11203;50.870;20.682;2023-02-28T06:35:19;101.28;;;55.00;;
21761;SDS011;11203;50.870;20.682;2023-02-28T06:37:45;85.15;;;47.50;;
21761;SDS011;11203;50.870;20.682;2023-02-28T06:40:12;93.00;;;54.95;;
21761;SDS011;11203;50.870;20.682;2023-02-28T06:42:38;102.60;;;57.80;;
21761;SDS011;11203;50.870;20.682;2023-02-28T06:45:05;97.57;;;55.13;;
21761;SDS011;11203;50.870;20.682;2023-02-28T06:47:35;92.10;;;54.97;;
21761;SDS011;11203;50.870;20.682;2023-02-28T06:50:03;95.10;;;54.92;;
21761;SDS011;11203;50.870;20.682;2023-02-28T06:52:30;91.18;;;48.38;;
21761;SDS011;11203;50.870;20.682;2023-02-28T06:54:56;80.22;;;46.42;;
21761;SDS011;11203;50.870;20.682;2023-02-28T06:57:27;82.43;;;45.00;;
21761;SDS011;11203;50.870;20.682;2023-02-28T06:59:57;90.82;;;50.53;;
21761;SDS011;11203;50.870;20.682;2023-02-28T07:02:25;69.68;;;38.78;;
21761;SDS011;11203;50.870;20.682;2023-02-28T07:04:51;45.08;;;25.73;;
21761;SDS011;11203;50.870;20.682;2023-02-28T07:07:18;30.17;;;18.85;;
21761;SDS011;11203;50.870;20.682;2023-02-28T07:09:44;40.88;;;24.92;;
21761;SDS011;11203;50.870;20.682;2023-02-28T07:12:10;33.58;;;20.38;;
21761;SDS011;11203;50.870;20.682;2023-02-28T07:14:36;34.42;;;22.45;;
21761;SDS011;11203;50.870;20.682;2023-02-28T07:17:03;32.83;;;21.85;;
21761;SDS011;11203;50.870;20.682;2023-02-28T07:19:29;26.65;;;17.42;;
21761;SDS011;11203;50.870;20.682;2023-02-28T07:21:55;30.33;;;18.70;;
21761;SDS011;11203;50.870;20.682;2023-02-28T07:24:21;31.10;;;20.17;;
21761;SDS011;11203;50.870;20.682;2023-02-28T07:26:49;32.80;;;19.63;;
21761;SDS011;11203;50.870;20.682;2023-02-28T07:29:15;30.77;;;18.30;;
21761;SDS011;11203;50.870;20.682;2023-02-28T07:31:41;42.70;;;24.60;;
21761;SDS011;11203;50.870;20.682;2023-02-28T07:34:07;44.13;;;24.67;;
21761;SDS011;11203;50.870;20.682;2023-02-28T07:36:34;38.67;;;20.27;;
21761;SDS011;11203;50.870;20.682;2023-02-28T07:39:00;45.83;;;22.60;;
21761;SDS011;11203;50.870;20.682;2023-02-28T07:41:26;34.83;;;24.20;;
21761;SDS011;11203;50.870;20.682;2023-02-28T07:43:55;34.55;;;20.23;;
21761;SDS011;11203;50.870;20.682;2023-02-28T07:46:22;38.72;;;23.92;;
21761;SDS011;11203;50.870;20.682;2023-02-28T07:48:48;36.28;;;23.90;;
21761;SDS011;11203;50.870;20.682;2023-02-28T07:51:15;31.33;;;18.23;;
21761;SDS011;11203;50.870;20.682;2023-02-28T07:53:41;45.05;;;27.40;;
21761;SDS011;11203;50.870;20.682;2023-02-28T07:56:07;47.50;;;33.65;;
21761;SDS011;11203;50.870;20.682;2023-02-28T07:58:33;29.33;;;18.88;;
21761;SDS011;11203;50.870;20.682;2023-02-28T08:01:07;36.97;;;22.10;;
21761;SDS011;11203;50.870;20.682;2023-02-28T08:03:34;35.53;;;22.60;;
21761;SDS011;11203;50.870;20.682;2023-02-28T08:06:05;26.85;;;19.40;;
21761;SDS011;11203;50.870;20.682;2023-02-28T08:08:33;38.75;;;28.50;;
21761;SDS011;11203;50.870;20.682;2023-02-28T08:11:00;23.27;;;15.48;;
21761;SDS011;11203;50.870;20.682;2023-02-28T08:13:28;67.13;;;44.70;;
21761;SDS011;11203;50.870;20.682;2023-02-28T08:15:55;29.20;;;18.95;;
21761;SDS011;11203;50.870;20.682;2023-02-28T08:18:22;40.92;;;30.45;;
21761;SDS011;11203;50.870;20.682;2023-02-28T08:20:49;38.72;;;21.83;;
21761;SDS011;11203;50.870;20.682;2023-02-28T08:23:15;28.48;;;15.07;;
21761;SDS011;11203;50.870;20.682;2023-02-28T08:25:41;31.45;;;18.30;;
21761;SDS011;11203;50.870;20.682;2023-02-28T08:28:07;19.60;;;13.10;;
21761;SDS011;11203;50.870;20.682;2023-02-28T08:30:33;24.05;;;17.45;;
21761;SDS011;11203;50.870;20.682;2023-02-28T08:32:59;28.27;;;19.67;;
21761;SDS011;11203;50.870;20.682;2023-02-28T08:35:27;28.65;;;17.55;;
21761;SDS011;11203;50.870;20.682;2023-02-28T08:37:53;24.77;;;14.70;;
21761;SDS011;11203;50.870;20.682;2023-02-28T08:40:19;49.13;;;23.80;;
21761;SDS011;11203;50.870;20.682;2023-02-28T08:42:45;29.08;;;16.85;;
21761;SDS011;11203;50.870;20.682;2023-02-28T08:45:13;33.42;;;17.38;;
21761;SDS011;11203;50.870;20.682;2023-02-28T08:47:40;53.53;;;27.65;;
21761;SDS011;11203;50.870;20.682;2023-02-28T08:50:07;25.98;;;16.67;;
21761;SDS011;11203;50.870;20.682;2023-02-28T08:52:34;23.15;;;13.88;;
21761;SDS011;11203;50.870;20.682;2023-02-28T08:55:00;22.13;;;13.43;;
21761;SDS011;11203;50.870;20.682;2023-02-28T08:57:26;17.83;;;12.50;;
21761;SDS011;11203;50.870;20.682;2023-02-28T08:59:52;22.17;;;15.15;;
21761;SDS011;11203;50.870;20.682;2023-02-28T09:02:20;21.80;;;13.55;;
21761;SDS011;11203;50.870;20.682;2023-02-28T09:04:46;21.20;;;14.00;;
21761;SDS011;11203;50.870;20.682;2023-02-28T09:07:12;48.55;;;33.50;;
21761;SDS011;11203;50.870;20.682;2023-02-28T09:09:38;30.77;;;17.65;;
21761;SDS011;11203;50.870;20.682;2023-02-28T09:12:22;25.20;;;16.27;;
21761;SDS011;11203;50.870;20.682;2023-02-28T09:14:59;23.70;;;15.73;;
21761;SDS011;11203;50.870;20.682;2023-02-28T09:17:25;25.23;;;16.70;;
21761;SDS011;11203;50.870;20.682;2023-02-28T09:19:51;34.42;;;20.75;;
21761;SDS011;11203;50.870;20.682;2023-02-28T09:22:17;47.45;;;33.83;;
21761;SDS011;11203;50.870;20.682;2023-02-28T09:24:44;26.58;;;18.02;;
21761;SDS011;11203;50.870;20.682;2023-02-28T09:27:11;35.35;;;23.60;;
21761;SDS011;11203;50.870;20.682;2023-02-28T09:29:37;39.10;;;25.60;;
21761;SDS011;11203;50.870;20.682;2023-02-28T09:32:03;43.88;;;27.40;;
21761;SDS011;11203;50.870;20.682;2023-02-28T09:34:32;36.92;;;22.77;;
21761;SDS011;11203;50.870;20.682;2023-02-28T09:36:58;28.23;;;18.25;;
21761;SDS011;11203;50.870;20.682;2023-02-28T09:39:24;24.75;;;14.65;;
21761;SDS011;11203;50.870;20.682;2023-02-28T09:41:52;29.10;;;16.45;;
21761;SDS011;11203;50.870;20.682;2023-02-28T09:44:40;26.85;;;14.65;;
21761;SDS011;11203;50.870;20.682;2023-02-28T09:49:51;23.77;;;17.35;;
21761;SDS011;11203;50.870;20.682;2023-02-28T09:52:18;35.38;;;22.90;;
21761;SDS011;11203;50.870;20.682;2023-02-28T09:54:47;33.92;;;24.67;;
21761;SDS011;11203;50.870;20.682;2023-02-28T09:57:17;31.10;;;21.40;;
21761;SDS011;11203;50.870;20.682;2023-02-28T10:06:14;22.95;;;14.25;;
21761;SDS011;11203;50.870;20.682;2023-02-28T10:08:51;21.73;;;14.07;;
21761;SDS011;11203;50.870;20.682;2023-02-28T10:11:34;20.40;;;13.80;;
21761;SDS011;11203;50.870;20.682;2023-02-28T10:14:03;24.52;;;15.82;;
21761;SDS011;11203;50.870;20.682;2023-02-28T10:16:48;25.35;;;14.93;;
21761;SDS011;11203;50.870;20.682;2023-02-28T10:19:40;26.35;;;16.40;;
21761;SDS011;11203;50.870;20.682;2023-02-28T10:22:19;27.23;;;18.67;;
21761;SDS011;11203;50.870;20.682;2023-02-28T10:24:51;23.67;;;14.48;;
21761;SDS011;11203;50.870;20.682;2023-02-28T10:27:21;24.88;;;13.98;;
21761;SDS011;11203;50.870;20.682;2023-02-28T10:29:54;23.50;;;14.25;;
21761;SDS011;11203;50.870;20.682;2023-02-28T10:32:24;22.25;;;13.80;;
21761;SDS011;11203;50.870;20.682;2023-02-28T10:37:41;21.88;;;13.10;;
21761;SDS011;11203;50.870;20.682;2023-02-28T10:45:22;20.90;;;12.18;;
21761;SDS011;11203;50.870;20.682;2023-02-28T10:47:54;18.38;;;12.68;;
21761;SDS011;11203;50.870;20.682;2023-02-28T10:50:29;19.45;;;12.10;;
21761;SDS011;11203;50.870;20.682;2023-02-28T10:58:31;21.25;;;14.23;;
21761;SDS011;11203;50.870;20.682;2023-02-28T11:01:40;19.38;;;12.40;;
21761;SDS011;11203;50.870;20.682;2023-02-28T11:04:17;17.58;;;12.55;;
21761;SDS011;11203;50.870;20.682;2023-02-28T11:09:52;35.60;;;20.00;;
21761;SDS011;11203;50.870;20.682;2023-02-28T11:15:06;19.35;;;12.68;;
21761;SDS011;11203;50.870;20.682;2023-02-28T11:17:53;15.85;;;10.32;;
21761;SDS011;11203;50.870;20.682;2023-02-28T11:20:52;13.95;;;9.40;;
21761;SDS011;11203;50.870;20.682;2023-02-28T11:23:21;17.48;;;11.98;;
21761;SDS011;11203;50.870;20.682;2023-02-28T11:25:54;18.58;;;12.20;;
21761;SDS011;11203;50.870;20.682;2023-02-28T11:28:29;23.05;;;12.55;;
21761;SDS011;11203;50.870;20.682;2023-02-28T11:31:03;28.02;;;20.30;;
21761;SDS011;11203;50.870;20.682;2023-02-28T11:36:40;21.75;;;12.30;;
21761;SDS011;11203;50.870;20.682;2023-02-28T11:38:59;17.77;;;11.63;;
21761;SDS011;11203;50.870;20.682;2023-02-28T11:52:56;24.45;;;16.48;;
21761;SDS011;11203;50.870;20.682;2023-02-28T11:55:30;28.98;;;21.20;;
21761;SDS011;11203;50.870;20.682;2023-02-28T11:58:18;22.90;;;15.50;;
21761;SDS011;11203;50.870;20.682;2023-02-28T12:01:38;19.95;;;13.88;;
21761;SDS011;11203;50.870;20.682;2023-02-28T12:07:25;49.25;;;29.35;;
21761;SDS011;11203;50.870;20.682;2023-02-28T12:10:59;27.00;;;16.77;;
21761;SDS011;11203;50.870;20.682;2023-02-28T12:25:58;18.45;;;10.90;;
21761;SDS011;11203;50.870;20.682;2023-02-28T12:28:38;16.27;;;10.95;;
21761;SDS011;11203;50.870;20.682;2023-02-28T12:31:22;15.02;;;10.73;;
21761;SDS011;11203;50.870;20.682;2023-02-28T12:33:55;36.35;;;26.00;;
21761;SDS011;11203;50.870;20.682;2023-02-28T12:36:29;31.20;;;23.63;;
21761;SDS011;11203;50.870;20.682;2023-02-28T12:38:56;23.40;;;19.55;;
21761;SDS011;11203;50.870;20.682;2023-02-28T12:41:34;15.38;;;10.93;;
21761;SDS011;11203;50.870;20.682;2023-02-28T12:44:07;18.73;;;11.93;;
21761;SDS011;11203;50.870;20.682;2023-02-28T12:46:57;32.33;;;23.20;;
21761;SDS011;11203;50.870;20.682;2023-02-28T12:49:28;16.10;;;10.82;;
21761;SDS011;11203;50.870;20.682;2023-02-28T12:52:12;17.77;;;11.75;;
21761;SDS011;11203;50.870;20.682;2023-02-28T12:55:01;19.20;;;14.30;;
21761;SDS011;11203;50.870;20.682;2023-02-28T13:10:14;102.50;;;58.53;;
21761;SDS011;11203;50.870;20.682;2023-02-28T13:12:48;257.63;;;142.32;;
21761;SDS011;11203;50.870;20.682;2023-02-28T13:15:18;224.93;;;116.47;;
21761;SDS011;11203;50.870;20.682;2023-02-28T13:17:54;18.45;;;12.48;;
21761;SDS011;11203;50.870;20.682;2023-02-28T13:20:31;19.77;;;13.25;;
21761;SDS011;11203;50.870;20.682;2023-02-28T13:23:01;46.15;;;24.15;;
21761;SDS011;11203;50.870;20.682;2023-02-28T13:28:00;40.55;;;22.83;;
21761;SDS011;11203;50.870;20.682;2023-02-28T13:38:50;15.82;;;10.88;;
21761;SDS011;11203;50.870;20.682;2023-02-28T13:49:28;41.53;;;29.95;;
21761;SDS011;11203;50.870;20.682;2023-02-28T13:57:33;25.70;;;19.33;;
21761;SDS011;11203;50.870;20.682;2023-02-28T14:03:47;19.58;;;13.90;;
21761;SDS011;11203;50.870;20.682;2023-02-28T14:06:55;17.63;;;12.98;;
21761;SDS011;11203;50.870;20.682;2023-02-28T14:11:50;17.98;;;12.07;;
21761;SDS011;11203;50.870;20.682;2023-02-28T14:17:02;31.40;;;16.90;;
21761;SDS011;11203;50.870;20.682;2023-02-28T14:19:31;67.78;;;26.60;;
21761;SDS011;11203;50.870;20.682;2023-02-28T14:37:03;37.55;;;21.77;;
21761;SDS011;11203;50.870;20.682;2023-02-28T14:39:30;18.17;;;12.23;;
21761;SDS011;11203;50.870;20.682;2023-02-28T14:41:57;21.00;;;13.55;;
21761;SDS011;11203;50.870;20.682;2023-02-28T14:44:30;19.15;;;12.45;;
21761;SDS011;11203;50.870;20.682;2023-02-28T14:46:58;19.23;;;11.25;;
21761;SDS011;11203;50.870;20.682;2023-02-28T14:49:34;20.77;;;14.25;;
21761;SDS011;11203;50.870;20.682;2023-02-28T14:52:09;27.48;;;16.15;;
21761;SDS011;11203;50.870;20.682;2023-02-28T14:54:44;46.30;;;23.67;;
21761;SDS011;11203;50.870;20.682;2023-02-28T14:57:25;49.40;;;23.70;;
21761;SDS011;11203;50.870;20.682;2023-02-28T15:02:39;32.10;;;17.48;;
21761;SDS011;11203;50.870;20.682;2023-02-28T15:07:38;21.25;;;13.68;;
21761;SDS011;11203;50.870;20.682;2023-02-28T15:10:15;17.55;;;11.77;;
21761;SDS011;11203;50.870;20.682;2023-02-28T15:12:56;20.77;;;14.20;;
21761;SDS011;11203;50.870;20.682;2023-02-28T15:23:45;26.58;;;16.75;;
21761;SDS011;11203;50.870;20.682;2023-02-28T15:26:42;21.63;;;13.95;;
21761;SDS011;11203;50.870;20.682;2023-02-28T15:29:12;27.63;;;19.25;;
21761;SDS011;11203;50.870;20.682;2023-02-28T15:31:44;31.23;;;21.13;;
21761;SDS011;11203;50.870;20.682;2023-02-28T15:34:22;37.88;;;21.00;;
21761;SDS011;11203;50.870;20.682;2023-02-28T15:37:06;39.15;;;25.67;;
21761;SDS011;11203;50.870;20.682;2023-02-28T15:43:03;86.18;;;44.67;;
21761;SDS011;11203;50.870;20.682;2023-02-28T15:45:32;30.50;;;18.67;;
21761;SDS011;11203;50.870;20.682;2023-02-28T15:48:25;28.85;;;16.90;;
21761;SDS011;11203;50.870;20.682;2023-02-28T15:51:05;90.03;;;42.95;;
21761;SDS011;11203;50.870;20.682;2023-02-28T15:53:44;66.30;;;30.45;;
21761;SDS011;11203;50.870;20.682;2023-02-28T15:59:01;46.80;;;21.52;;
21761;SDS011;11203;50.870;20.682;2023-02-28T16:01:32;44.83;;;24.40;;
21761;SDS011;11203;50.870;20.682;2023-02-28T16:04:11;62.95;;;29.08;;
21761;SDS011;11203;50.870;20.682;2023-02-28T16:06:42;46.30;;;24.55;;
21761;SDS011;11203;50.870;20.682;2023-02-28T16:09:26;40.38;;;23.60;;
21761;SDS011;11203;50.870;20.682;2023-02-28T16:11:54;41.00;;;25.52;;
21761;SDS011;11203;50.870;20.682;2023-02-28T16:14:27;46.55;;;25.88;;
21761;SDS011;11203;50.870;20.682;2023-02-28T16:17:07;43.08;;;27.23;;
21761;SDS011;11203;50.870;20.682;2023-02-28T16:19:54;57.72;;;32.65;;
21761;SDS011;11203;50.870;20.682;2023-02-28T16:22:21;47.13;;;28.05;;
21761;SDS011;11203;50.870;20.682;2023-02-28T16:24:47;47.42;;;25.95;;
21761;SDS011;11203;50.870;20.682;2023-02-28T16:27:21;45.78;;;25.48;;
21761;SDS011;11203;50.870;20.682;2023-02-28T16:29:56;113.47;;;44.58;;
21761;SDS011;11203;50.870;20.682;2023-02-28T16:32:22;184.35;;;61.55;;
21761;SDS011;11203;50.870;20.682;2023-02-28T16:34:48;97.93;;;39.22;;
21761;SDS011;11203;50.870;20.682;2023-02-28T16:37:15;141.23;;;51.85;;
21761;SDS011;11203;50.870;20.682;2023-02-28T16:39:43;177.52;;;60.95;;
21761;SDS011;11203;50.870;20.682;2023-02-28T16:42:12;185.77;;;62.95;;
21761;SDS011;11203;50.870;20.682;2023-02-28T16:44:47;260.35;;;102.55;;
21761;SDS011;11203;50.870;20.682;2023-02-28T16:47:13;139.55;;;71.55;;
21761;SDS011;11203;50.870;20.682;2023-02-28T16:49:40;572.13;;;317.15;;
21761;SDS011;11203;50.870;20.682;2023-02-28T16:52:07;281.35;;;130.18;;
21761;SDS011;11203;50.870;20.682;2023-02-28T16:54:36;1277.07;;;520.17;;
21761;SDS011;11203;50.870;20.682;2023-02-28T16:57:02;807.60;;;313.25;;
21761;SDS011;11203;50.870;20.682;2023-02-28T16:59:28;476.13;;;160.10;;
21761;SDS011;11203;50.870;20.682;2023-02-28T17:01:55;285.33;;;113.00;;
21761;SDS011;11203;50.870;20.682;2023-02-28T17:04:25;217.63;;;78.38;;
21761;SDS011;11203;50.870;20.682;2023-02-28T17:06:52;241.18;;;88.13;;
21761;SDS011;11203;50.870;20.682;2023-02-28T17:09:21;216.65;;;74.95;;
21761;SDS011;11203;50.870;20.682;2023-02-28T17:11:50;96.68;;;46.70;;
21761;SDS011;11203;50.870;20.682;2023-02-28T17:14:17;87.55;;;44.08;;
21761;SDS011;11203;50.870;20.682;2023-02-28T17:16:43;146.50;;;63.28;;
21761;SDS011;11203;50.870;20.682;2023-02-28T17:19:11;143.95;;;63.45;;
21761;SDS011;11203;50.870;20.682;2023-02-28T17:21:40;115.68;;;61.78;;
21761;SDS011;11203;50.870;20.682;2023-02-28T17:24:07;126.85;;;69.18;;
21761;SDS011;11203;50.870;20.682;2023-02-28T17:26:38;393.17;;;132.90;;
21761;SDS011;11203;50.870;20.682;2023-02-28T17:29:24;270.30;;;98.53;;